sensor_id;sensor_type;location;lat;lon;timestamp;P1;durP1;ratioP1;P2;durP2;ratioP2
59300;SDS011;45073;52.740;6.784;2023-02-28T00:00:30;8.50;;;2.80;;
59300;SDS011;45073;52.740;6.784;2023-02-28T00:02:56;8.20;;;2.55;;
59300;SDS011;45073;52.740;6.784;2023-02-28T00:05:22;12.68;;;4.28;;
59300;SDS011;45073;52.740;6.784;2023-02-28T00:07:49;8.73;;;2.95;;
59300;SDS011;45073;52.740;6.784;2023-02-28T00:10:19;6.32;;;2.50;;
59300;SDS011;45073;52.740;6.784;2023-02-28T00:12:53;9.27;;;2.97;;
59300;SDS011;45073;52.740;6.784;2023-02-28T00:15:22;9.40;;;2.42;;
59300;SDS011;45073;52.740;6.784;2023-02-28T00:17:48;6.88;;;2.35;;
59300;SDS011;45073;52.740;6.784;2023-02-28T00:20:14;6.95;;;2.45;;
59300;SDS011;45073;52.740;6.784;2023-02-28T00:22:41;12.73;;;3.33;;
59300;SDS011;45073;52.740;6.784;2023-02-28T00:25:10;6.93;;;2.28;;
59300;SDS011;45073;52.740;6.784;2023-02-28T00:27:38;7.53;;;2.30;;
59300;SDS011;45073;52.740;6.784;2023-02-28T00:30:05;7.07;;;2.50;;
59300;SDS011;45073;52.740;6.784;2023-02-28T00:32:33;7.70;;;2.47;;
59300;SDS011;45073;52.740;6.784;2023-02-28T00:34:59;9.73;;;2.42;;
59300;SDS011;45073;52.740;6.784;2023-02-28T00:37:25;10.50;;;2.90;;
59300;SDS011;45073;52.740;6.784;2023-02-28T00:39:51;10.45;;;2.72;;
59300;SDS011;45073;52.740;6.784;2023-02-28T00:42:17;8.60;;;2.63;;
59300;SDS011;45073;52.740;6.784;2023-02-28T00:44:42;5.72;;;2.08;;
59300;SDS011;45073;52.740;6.784;2023-02-28T00:47:08;7.88;;;2.53;;
59300;SDS011;45073;52.740;6.784;2023-02-28T00:49:33;11.00;;;2.85;;
59300;SDS011;45073;52.740;6.784;2023-02-28T00:51:59;8.65;;;2.47;;
59300;SDS011;45073;52.740;6.784;2023-02-28T00:54:25;7.20;;;2.40;;
59300;SDS011;45073;52.740;6.784;2023-02-28T00:56:51;7.00;;;2.13;;
59300;SDS011;45073;52.740;6.784;2023-02-28T00:59:17;7.90;;;2.33;;
59300;SDS011;45073;52.740;6.784;2023-02-28T01:01:43;7.15;;;2.50;;
59300;SDS011;45073;52.740;6.784;2023-02-28T01:04:09;6.20;;;2.25;;
59300;SDS011;45073;52.740;6.784;2023-02-28T01:06:35;8.40;;;2.88;;
59300;SDS011;45073;52.740;6.784;2023-02-28T01:09:02;8.93;;;2.92;;
59300;SDS011;45073;52.740;6.784;2023-02-28T01:11:29;9.00;;;3.17;;
59300;SDS011;45073;52.740;6.784;2023-02-28T01:13:55;10.15;;;2.92;;
59300;SDS011;45073;52.740;6.784;2023-02-28T01:16:21;8.07;;;2.80;;
59300;SDS011;45073;52.740;6.784;2023-02-28T01:18:47;7.28;;;2.92;;
59300;SDS011;45073;52.740;6.784;2023-02-28T01:21:15;9.40;;;2.70;;
59300;SDS011;45073;52.740;6.784;2023-02-28T01:23:42;8.15;;;2.80;;
59300;SDS011;45073;52.740;6.784;2023-02-28T01:26:10;10.85;;;3.38;;
59300;SDS011;45073;52.740;6.784;2023-02-28T01:28:39;7.93;;;2.88;;
59300;SDS011;45073;52.740;6.784;2023-02-28T01:31:05;7.93;;;2.78;;
59300;SDS011;45073;52.740;6.784;2023-02-28T01:33:31;8.23;;;3.00;;
59300;SDS011;45073;52.740;6.784;2023-02-28T01:36:01;9.00;;;3.05;;
59300;SDS011;45073;52.740;6.784;2023-02-28T01:38:28;10.27;;;2.85;;
59300;SDS011;45073;52.740;6.784;2023-02-28T01:40:54;9.68;;;3.35;;
59300;SDS011;45073;52.740;6.784;2023-02-28T01:43:24;8.05;;;3.10;;
59300;SDS011;45073;52.740;6.784;2023-02-28T01:45:55;8.27;;;3.13;;
59300;SDS011;45073;52.740;6.784;2023-02-28T01:48:32;10.18;;;3.33;;
59300;SDS011;45073;52.740;6.784;2023-02-28T01:51:03;10.52;;;2.92;;
59300;SDS011;45073;52.740;6.784;2023-02-28T01:53:36;7.55;;;2.70;;
59300;SDS011;45073;52.740;6.784;2023-02-28T01:56:07;10.02;;;3.40;;
59300;SDS011;45073;52.740;6.784;2023-02-28T01:58:34;8.02;;;2.97;;
59300;SDS011;45073;52.740;6.784;2023-02-28T02:01:02;11.75;;;3.55;;
59300;SDS011;45073;52.740;6.784;2023-02-28T02:03:27;9.85;;;3.20;;
59300;SDS011;45073;52.740;6.784;2023-02-28T02:05:54;8.45;;;3.10;;
59300;SDS011;45073;52.740;6.784;2023-02-28T02:08:21;10.60;;;3.67;;
59300;SDS011;45073;52.740;6.784;2023-02-28T02:10:52;10.32;;;4.03;;
59300;SDS011;45073;52.740;6.784;2023-02-28T02:27:25;10.20;;;4.00;;
59300;SDS011;45073;52.740;6.784;2023-02-28T02:33:03;9.60;;;3.92;;
59300;SDS011;45073;52.740;6.784;2023-02-28T02:35:56;9.20;;;3.85;;
59300;SDS011;45073;52.740;6.784;2023-02-28T02:38:46;8.80;;;4.22;;
59300;SDS011;45073;52.740;6.784;2023-02-28T02:41:37;11.00;;;4.22;;
59300;SDS011;45073;52.740;6.784;2023-02-28T02:44:20;10.00;;;4.50;;
59300;SDS011;45073;52.740;6.784;2023-02-28T02:46:51;11.07;;;4.43;;
59300;SDS011;45073;52.740;6.784;2023-02-28T02:49:24;9.68;;;3.70;;
59300;SDS011;45073;52.740;6.784;2023-02-28T02:51:53;8.90;;;3.92;;
59300;SDS011;45073;52.740;6.784;2023-02-28T02:54:23;10.05;;;4.22;;
59300;SDS011;45073;52.740;6.784;2023-02-28T02:56:53;12.90;;;4.57;;
59300;SDS011;45073;52.740;6.784;2023-02-28T02:59:24;11.15;;;4.28;;
59300;SDS011;45073;52.740;6.784;2023-02-28T03:01:53;11.48;;;4.65;;
59300;SDS011;45073;52.740;6.784;2023-02-28T03:04:23;9.55;;;4.10;;
59300;SDS011;45073;52.740;6.784;2023-02-28T03:06:50;9.32;;;3.97;;
59300;SDS011;45073;52.740;6.784;2023-02-28T03:09:20;8.73;;;3.85;;
59300;SDS011;45073;52.740;6.784;2023-02-28T03:11:46;9.13;;;4.47;;
59300;SDS011;45073;52.740;6.784;2023-02-28T03:14:25;9.50;;;4.38;;
59300;SDS011;45073;52.740;6.784;2023-02-28T03:32:54;12.35;;;4.47;;
59300;SDS011;45073;52.740;6.784;2023-02-28T03:35:29;8.95;;;4.30;;
59300;SDS011;45073;52.740;6.784;2023-02-28T03:38:00;13.57;;;4.03;;
59300;SDS011;45073;52.740;6.784;2023-02-28T03:40:33;12.30;;;4.55;;
59300;SDS011;45073;52.740;6.784;2023-02-28T03:43:04;10.73;;;4.40;;
59300;SDS011;45073;52.740;6.784;2023-02-28T03:45:36;8.90;;;4.28;;
59300;SDS011;45073;52.740;6.784;2023-02-28T03:48:47;12.18;;;4.45;;
59300;SDS011;45073;52.740;6.784;2023-02-28T03:50:57;9.95;;;3.92;;
59300;SDS011;45073;52.740;6.784;2023-02-28T03:53:29;10.98;;;4.18;;
59300;SDS011;45073;52.740;6.784;2023-02-28T03:56:01;8.98;;;4.13;;
59300;SDS011;45073;52.740;6.784;2023-02-28T03:58:51;9.25;;;3.80;;
59300;SDS011;45073;52.740;6.784;2023-02-28T04:01:38;9.50;;;4.55;;
59300;SDS011;45073;52.740;6.784;2023-02-28T04:04:07;10.23;;;4.25;;
59300;SDS011;45073;52.740;6.784;2023-02-28T04:06:36;11.30;;;4.32;;
59300;SDS011;45073;52.740;6.784;2023-02-28T04:09:03;9.15;;;4.03;;
59300;SDS011;45073;52.740;6.784;2023-02-28T04:11:34;11.88;;;5.18;;
59300;SDS011;45073;52.740;6.784;2023-02-28T04:14:01;11.32;;;4.97;;
59300;SDS011;45073;52.740;6.784;2023-02-28T04:16:27;10.82;;;4.57;;
59300;SDS011;45073;52.740;6.784;2023-02-28T04:18:53;10.77;;;4.32;;
59300;SDS011;45073;52.740;6.784;2023-02-28T04:21:19;11.10;;;4.32;;
59300;SDS011;45073;52.740;6.784;2023-02-28T04:23:47;12.25;;;4.28;;
59300;SDS011;45073;52.740;6.784;2023-02-28T04:26:13;12.68;;;5.07;;
59300;SDS011;45073;52.740;6.784;2023-02-28T04:28:38;12.30;;;5.32;;
59300;SDS011;45073;52.740;6.784;2023-02-28T04:31:04;10.20;;;4.70;;
59300;SDS011;45073;52.740;6.784;2023-02-28T04:33:31;10.18;;;4.22;;
59300;SDS011;45073;52.740;6.784;2023-02-28T04:36:01;12.27;;;4.45;;
59300;SDS011;45073;52.740;6.784;2023-02-28T04:38:29;10.15;;;4.20;;
59300;SDS011;45073;52.740;6.784;2023-02-28T04:40:58;9.43;;;3.72;;
59300;SDS011;45073;52.740;6.784;2023-02-28T04:43:25;8.70;;;4.18;;
59300;SDS011;45073;52.740;6.784;2023-02-28T04:45:51;9.52;;;4.30;;
59300;SDS011;45073;52.740;6.784;2023-02-28T04:48:17;11.80;;;4.47;;
59300;SDS011;45073;52.740;6.784;2023-02-28T04:50:42;11.52;;;4.50;;
59300;SDS011;45073;52.740;6.784;2023-02-28T04:53:08;10.73;;;3.88;;
59300;SDS011;45073;52.740;6.784;2023-02-28T04:55:34;8.55;;;3.35;;
59300;SDS011;45073;52.740;6.784;2023-02-28T04:57:59;11.00;;;4.13;;
59300;SDS011;45073;52.740;6.784;2023-02-28T05:00:25;12.13;;;3.70;;
59300;SDS011;45073;52.740;6.784;2023-02-28T05:02:51;9.52;;;3.85;;
59300;SDS011;45073;52.740;6.784;2023-02-28T05:05:16;8.45;;;3.67;;
59300;SDS011;45073;52.740;6.784;2023-02-28T05:07:44;9.30;;;3.58;;
59300;SDS011;45073;52.740;6.784;2023-02-28T05:10:10;9.32;;;3.85;;
59300;SDS011;45073;52.740;6.784;2023-02-28T05:12:35;9.57;;;4.05;;
59300;SDS011;45073;52.740;6.784;2023-02-28T05:15:01;9.27;;;3.78;;
59300;SDS011;45073;52.740;6.784;2023-02-28T05:17:28;8.18;;;4.32;;
59300;SDS011;45073;52.740;6.784;2023-02-28T05:19:53;12.20;;;3.97;;
59300;SDS011;45073;52.740;6.784;2023-02-28T05:22:19;9.75;;;4.22;;
59300;SDS011;45073;52.740;6.784;2023-02-28T05:24:44;10.02;;;4.20;;
59300;SDS011;45073;52.740;6.784;2023-02-28T05:27:10;9.98;;;4.10;;
59300;SDS011;45073;52.740;6.784;2023-02-28T05:29:36;9.68;;;4.22;;
59300;SDS011;45073;52.740;6.784;2023-02-28T05:32:08;11.80;;;3.90;;
59300;SDS011;45073;52.740;6.784;2023-02-28T05:34:36;9.60;;;4.10;;
59300;SDS011;45073;52.740;6.784;2023-02-28T05:37:02;11.38;;;4.25;;
59300;SDS011;45073;52.740;6.784;2023-02-28T05:39:28;10.30;;;4.10;;
59300;SDS011;45073;52.740;6.784;2023-02-28T05:41:54;8.57;;;3.60;;
59300;SDS011;45073;52.740;6.784;2023-02-28T05:44:20;9.52;;;4.00;;
59300;SDS011;45073;52.740;6.784;2023-02-28T05:46:45;10.02;;;4.45;;
59300;SDS011;45073;52.740;6.784;2023-02-28T05:49:11;10.65;;;3.83;;
59300;SDS011;45073;52.740;6.784;2023-02-28T05:51:37;8.82;;;3.60;;
59300;SDS011;45073;52.740;6.784;2023-02-28T05:54:04;7.72;;;3.55;;
59300;SDS011;45073;52.740;6.784;2023-02-28T05:56:31;7.90;;;3.78;;
59300;SDS011;45073;52.740;6.784;2023-02-28T05:58:56;9.65;;;3.70;;
59300;SDS011;45073;52.740;6.784;2023-02-28T06:04:05;8.90;;;3.70;;
59300;SDS011;45073;52.740;6.784;2023-02-28T06:06:32;10.38;;;3.58;;
59300;SDS011;45073;52.740;6.784;2023-02-28T06:09:02;7.97;;;3.60;;
59300;SDS011;45073;52.740;6.784;2023-02-28T06:11:29;8.63;;;3.92;;
59300;SDS011;45073;52.740;6.784;2023-02-28T06:13:56;9.73;;;4.18;;
59300;SDS011;45073;52.740;6.784;2023-02-28T06:16:25;8.25;;;4.05;;
59300;SDS011;45073;52.740;6.784;2023-02-28T06:18:51;9.25;;;4.50;;
59300;SDS011;45073;52.740;6.784;2023-02-28T06:21:18;10.80;;;4.72;;
59300;SDS011;45073;52.740;6.784;2023-02-28T06:23:44;9.27;;;4.10;;
59300;SDS011;45073;52.740;6.784;2023-02-28T06:26:09;10.50;;;4.50;;
59300;SDS011;45073;52.740;6.784;2023-02-28T06:28:36;9.60;;;4.82;;
59300;SDS011;45073;52.740;6.784;2023-02-28T06:31:05;12.82;;;4.20;;
59300;SDS011;45073;52.740;6.784;2023-02-28T06:33:36;11.35;;;4.32;;
59300;SDS011;45073;52.740;6.784;2023-02-28T06:36:03;11.93;;;3.95;;
59300;SDS011;45073;52.740;6.784;2023-02-28T06:38:29;9.77;;;4.68;;
59300;SDS011;45073;52.740;6.784;2023-02-28T06:40:56;8.80;;;4.22;;
59300;SDS011;45073;52.740;6.784;2023-02-28T06:43:22;9.13;;;4.03;;
59300;SDS011;45073;52.740;6.784;2023-02-28T06:45:48;8.32;;;4.10;;
59300;SDS011;45073;52.740;6.784;2023-02-28T06:48:14;8.82;;;3.42;;
59300;SDS011;45073;52.740;6.784;2023-02-28T06:50:39;7.88;;;3.80;;
59300;SDS011;45073;52.740;6.784;2023-02-28T06:53:05;8.20;;;4.15;;
59300;SDS011;45073;52.740;6.784;2023-02-28T06:55:31;9.70;;;3.92;;
59300;SDS011;45073;52.740;6.784;2023-02-28T06:57:57;8.63;;;4.13;;
59300;SDS011;45073;52.740;6.784;2023-02-28T07:00:23;8.80;;;3.80;;
59300;SDS011;45073;52.740;6.784;2023-02-28T07:02:49;11.50;;;4.93;;
59300;SDS011;45073;52.740;6.784;2023-02-28T07:05:15;9.25;;;3.95;;
59300;SDS011;45073;52.740;6.784;2023-02-28T07:07:41;9.13;;;3.88;;
59300;SDS011;45073;52.740;6.784;2023-02-28T07:10:12;8.95;;;3.90;;
59300;SDS011;45073;52.740;6.784;2023-02-28T07:12:39;11.18;;;4.38;;
59300;SDS011;45073;52.740;6.784;2023-02-28T07:15:05;8.75;;;4.35;;
59300;SDS011;45073;52.740;6.784;2023-02-28T07:17:31;8.98;;;4.03;;
59300;SDS011;45073;52.740;6.784;2023-02-28T07:19:57;8.55;;;4.03;;
59300;SDS011;45073;52.740;6.784;2023-02-28T07:22:22;8.80;;;4.07;;
59300;SDS011;45073;52.740;6.784;2023-02-28T07:24:48;8.38;;;3.80;;
59300;SDS011;45073;52.740;6.784;2023-02-28T07:27:14;9.30;;;4.50;;
59300;SDS011;45073;52.740;6.784;2023-02-28T07:29:48;11.15;;;4.50;;
59300;SDS011;45073;52.740;6.784;2023-02-28T07:32:15;8.02;;;3.70;;
59300;SDS011;45073;52.740;6.784;2023-02-28T07:34:40;8.27;;;4.30;;
59300;SDS011;45073;52.740;6.784;2023-02-28T07:37:06;11.02;;;4.25;;
59300;SDS011;45073;52.740;6.784;2023-02-28T07:39:32;10.18;;;4.20;;
59300;SDS011;45073;52.740;6.784;2023-02-28T07:41:57;8.13;;;3.50;;
59300;SDS011;45073;52.740;6.784;2023-02-28T07:44:24;9.93;;;4.47;;
59300;SDS011;45073;52.740;6.784;2023-02-28T07:46:50;9.70;;;4.65;;
59300;SDS011;45073;52.740;6.784;2023-02-28T07:49:17;8.70;;;3.70;;
59300;SDS011;45073;52.740;6.784;2023-02-28T07:51:43;9.45;;;4.22;;
59300;SDS011;45073;52.740;6.784;2023-02-28T07:54:09;9.68;;;4.50;;
59300;SDS011;45073;52.740;6.784;2023-02-28T07:56:53;9.52;;;4.22;;
59300;SDS011;45073;52.740;6.784;2023-02-28T07:59:18;9.40;;;4.05;;
59300;SDS011;45073;52.740;6.784;2023-02-28T08:01:44;7.85;;;3.40;;
59300;SDS011;45073;52.740;6.784;2023-02-28T08:04:10;8.70;;;3.78;;
59300;SDS011;45073;52.740;6.784;2023-02-28T08:06:35;9.50;;;3.95;;
59300;SDS011;45073;52.740;6.784;2023-02-28T08:09:01;8.35;;;3.42;;
59300;SDS011;45073;52.740;6.784;2023-02-28T08:11:27;10.57;;;4.13;;
59300;SDS011;45073;52.740;6.784;2023-02-28T08:13:52;10.02;;;4.50;;
59300;SDS011;45073;52.740;6.784;2023-02-28T08:16:19;11.40;;;4.20;;
59300;SDS011;45073;52.740;6.784;2023-02-28T08:18:47;9.35;;;3.90;;
59300;SDS011;45073;52.740;6.784;2023-02-28T08:21:17;10.95;;;4.68;;
59300;SDS011;45073;52.740;6.784;2023-02-28T08:23:43;8.27;;;4.00;;
59300;SDS011;45073;52.740;6.784;2023-02-28T08:26:12;9.85;;;4.13;;
59300;SDS011;45073;52.740;6.784;2023-02-28T08:28:38;8.20;;;3.75;;
59300;SDS011;45073;52.740;6.784;2023-02-28T08:31:11;9.73;;;3.72;;
59300;SDS011;45073;52.740;6.784;2023-02-28T08:33:39;9.57;;;4.18;;
59300;SDS011;45073;52.740;6.784;2023-02-28T08:36:05;8.80;;;4.10;;
59300;SDS011;45073;52.740;6.784;2023-02-28T08:38:32;8.45;;;3.72;;
59300;SDS011;45073;52.740;6.784;2023-02-28T08:41:05;9.43;;;3.90;;
59300;SDS011;45073;52.740;6.784;2023-02-28T08:43:34;10.10;;;4.15;;
59300;SDS011;45073;52.740;6.784;2023-02-28T08:46:00;8.88;;;4.03;;
59300;SDS011;45073;52.740;6.784;2023-02-28T08:48:27;8.95;;;4.40;;
59300;SDS011;45073;52.740;6.784;2023-02-28T08:51:04;9.65;;;4.43;;
59300;SDS011;45073;52.740;6.784;2023-02-28T08:53:31;9.95;;;4.30;;
59300;SDS011;45073;52.740;6.784;2023-02-28T08:55:58;12.68;;;4.90;;
59300;SDS011;45073;52.740;6.784;2023-02-28T08:58:25;10.40;;;4.60;;
59300;SDS011;45073;52.740;6.784;2023-02-28T09:00:51;10.15;;;4.80;;
59300;SDS011;45073;52.740;6.784;2023-02-28T09:03:17;8.73;;;4.50;;
59300;SDS011;45073;52.740;6.784;2023-02-28T09:05:55;10.73;;;4.75;;
59300;SDS011;45073;52.740;6.784;2023-02-28T09:08:23;10.85;;;5.18;;
59300;SDS011;45073;52.740;6.784;2023-02-28T09:10:49;8.20;;;4.18;;
59300;SDS011;45073;52.740;6.784;2023-02-28T09:13:16;9.70;;;3.97;;
59300;SDS011;45073;52.740;6.784;2023-02-28T09:15:42;10.23;;;3.65;;
59300;SDS011;45073;52.740;6.784;2023-02-28T09:18:08;8.85;;;3.15;;
59300;SDS011;45073;52.740;6.784;2023-02-28T09:20:33;10.57;;;2.90;;
59300;SDS011;45073;52.740;6.784;2023-02-28T09:22:59;9.15;;;2.90;;
59300;SDS011;45073;52.740;6.784;2023-02-28T09:25:25;7.47;;;2.83;;
59300;SDS011;45073;52.740;6.784;2023-02-28T09:27:50;8.43;;;2.70;;
59300;SDS011;45073;52.740;6.784;2023-02-28T09:30:16;7.47;;;2.47;;
59300;SDS011;45073;52.740;6.784;2023-02-28T09:32:42;6.45;;;2.25;;
59300;SDS011;45073;52.740;6.784;2023-02-28T09:35:22;7.82;;;2.33;;
59300;SDS011;45073;52.740;6.784;2023-02-28T09:37:50;5.93;;;2.40;;
59300;SDS011;45073;52.740;6.784;2023-02-28T09:40:17;7.43;;;2.53;;
59300;SDS011;45073;52.740;6.784;2023-02-28T09:42:49;6.20;;;2.03;;
59300;SDS011;45073;52.740;6.784;2023-02-28T09:45:21;5.88;;;1.83;;
59300;SDS011;45073;52.740;6.784;2023-02-28T09:47:52;8.57;;;3.35;;
59300;SDS011;45073;52.740;6.784;2023-02-28T09:50:28;7.80;;;2.67;;
59300;SDS011;45073;52.740;6.784;2023-02-28T09:53:01;5.88;;;2.30;;
59300;SDS011;45073;52.740;6.784;2023-02-28T09:55:45;5.57;;;1.83;;
59300;SDS011;45073;52.740;6.784;2023-02-28T09:58:32;6.63;;;1.90;;
59300;SDS011;45073;52.740;6.784;2023-02-28T10:04:05;4.50;;;1.85;;
59300;SDS011;45073;52.740;6.784;2023-02-28T10:07:00;6.07;;;2.08;;
59300;SDS011;45073;52.740;6.784;2023-02-28T10:09:31;6.93;;;2.10;;
59300;SDS011;45073;52.740;6.784;2023-02-28T10:12:04;5.68;;;1.80;;
59300;SDS011;45073;52.740;6.784;2023-02-28T10:14:32;6.97;;;2.00;;
59300;SDS011;45073;52.740;6.784;2023-02-28T10:17:01;5.22;;;2.03;;
59300;SDS011;45073;52.740;6.784;2023-02-28T10:19:42;4.72;;;1.50;;
59300;SDS011;45073;52.740;6.784;2023-02-28T10:22:20;4.20;;;1.70;;
59300;SDS011;45073;52.740;6.784;2023-02-28T10:25:21;4.72;;;1.60;;
59300;SDS011;45073;52.740;6.784;2023-02-28T10:28:07;8.90;;;2.00;;
59300;SDS011;45073;52.740;6.784;2023-02-28T10:30:38;5.18;;;1.80;;
59300;SDS011;45073;52.740;6.784;2023-02-28T10:33:30;6.90;;;2.10;;
59300;SDS011;45073;52.740;6.784;2023-02-28T10:35:57;3.53;;;1.38;;
59300;SDS011;45073;52.740;6.784;2023-02-28T10:38:27;3.88;;;1.60;;
59300;SDS011;45073;52.740;6.784;2023-02-28T10:41:05;5.30;;;1.60;;
59300;SDS011;45073;52.740;6.784;2023-02-28T10:43:33;6.63;;;1.92;;
59300;SDS011;45073;52.740;6.784;2023-02-28T10:51:05;5.35;;;1.70;;
59300;SDS011;45073;52.740;6.784;2023-02-28T10:53:51;7.47;;;1.80;;
59300;SDS011;45073;52.740;6.784;2023-02-28T10:56:23;5.60;;;1.48;;
59300;SDS011;45073;52.740;6.784;2023-02-28T11:04:03;3.28;;;1.52;;
59300;SDS011;45073;52.740;6.784;2023-02-28T11:09:38;5.22;;;1.50;;
59300;SDS011;45073;52.740;6.784;2023-02-28T11:12:06;4.00;;;1.48;;
59300;SDS011;45073;52.740;6.784;2023-02-28T11:14:47;4.72;;;1.48;;
59300;SDS011;45073;52.740;6.784;2023-02-28T11:17:23;4.78;;;1.60;;
59300;SDS011;45073;52.740;6.784;2023-02-28T11:19:52;4.72;;;1.50;;
59300;SDS011;45073;52.740;6.784;2023-02-28T11:22:22;4.55;;;1.30;;
59300;SDS011;45073;52.740;6.784;2023-02-28T11:24:53;4.55;;;1.70;;
59300;SDS011;45073;52.740;6.784;2023-02-28T11:29:57;4.68;;;1.48;;
59300;SDS011;45073;52.740;6.784;2023-02-28T11:32:27;5.07;;;1.55;;
59300;SDS011;45073;52.740;6.784;2023-02-28T11:37:36;5.20;;;1.60;;
59300;SDS011;45073;52.740;6.784;2023-02-28T11:40:13;5.82;;;1.60;;
59300;SDS011;45073;52.740;6.784;2023-02-28T11:42:48;6.15;;;1.55;;
59300;SDS011;45073;52.740;6.784;2023-02-28T11:51:02;5.93;;;1.52;;
59300;SDS011;45073;52.740;6.784;2023-02-28T11:56:31;4.57;;;1.52;;
59300;SDS011;45073;52.740;6.784;2023-02-28T12:10:24;5.50;;;1.85;;
59300;SDS011;45073;52.740;6.784;2023-02-28T12:13:00;4.57;;;1.50;;
59300;SDS011;45073;52.740;6.784;2023-02-28T12:18:50;6.72;;;1.63;;
59300;SDS011;45073;52.740;6.784;2023-02-28T12:21:26;6.15;;;1.80;;
59300;SDS011;45073;52.740;6.784;2023-02-28T12:26:49;4.53;;;1.60;;
59300;SDS011;45073;52.740;6.784;2023-02-28T12:29:21;4.97;;;1.80;;
59300;SDS011;45073;52.740;6.784;2023-02-28T12:32:04;5.20;;;1.55;;
59300;SDS011;45073;52.740;6.784;2023-02-28T12:34:33;4.07;;;1.70;;
59300;SDS011;45073;52.740;6.784;2023-02-28T12:37:05;4.50;;;1.77;;
59300;SDS011;45073;52.740;6.784;2023-02-28T12:39:37;4.30;;;1.60;;
59300;SDS011;45073;52.740;6.784;2023-02-28T12:42:13;4.10;;;1.52;;
59300;SDS011;45073;52.740;6.784;2023-02-28T12:47:17;5.82;;;1.80;;
59300;SDS011;45073;52.740;6.784;2023-02-28T12:52:19;5.25;;;2.10;;
59300;SDS011;45073;52.740;6.784;2023-02-28T12:55:03;6.43;;;2.20;;
59300;SDS011;45073;52.740;6.784;2023-02-28T12:58:01;6.82;;;1.80;;
59300;SDS011;45073;52.740;6.784;2023-02-28T13:09:21;5.35;;;2.00;;
59300;SDS011;45073;52.740;6.784;2023-02-28T13:11:51;7.47;;;2.20;;
59300;SDS011;45073;52.740;6.784;2023-02-28T13:14:27;4.43;;;1.63;;
59300;SDS011;45073;52.740;6.784;2023-02-28T13:17:13;7.35;;;2.30;;
59300;SDS011;45073;52.740;6.784;2023-02-28T13:19:55;5.32;;;1.83;;
59300;SDS011;45073;52.740;6.784;2023-02-28T13:27:59;7.03;;;2.00;;
59300;SDS011;45073;52.740;6.784;2023-02-28T13:33:27;6.47;;;2.15;;
59300;SDS011;45073;52.740;6.784;2023-02-28T13:36:07;5.15;;;2.05;;
59300;SDS011;45073;52.740;6.784;2023-02-28T13:38:43;5.90;;;2.20;;
59300;SDS011;45073;52.740;6.784;2023-02-28T13:49:18;5.53;;;2.10;;
59300;SDS011;45073;52.740;6.784;2023-02-28T14:00:02;5.97;;;1.70;;
59300;SDS011;45073;52.740;6.784;2023-02-28T14:02:41;4.00;;;1.60;;
59300;SDS011;45073;52.740;6.784;2023-02-28T14:05:26;4.93;;;1.80;;
59300;SDS011;45073;52.740;6.784;2023-02-28T14:07:56;4.18;;;1.50;;
59300;SDS011;45073;52.740;6.784;2023-02-28T14:10:27;6.25;;;1.80;;
59300;SDS011;45073;52.740;6.784;2023-02-28T14:17:58;4.07;;;1.42;;
59300;SDS011;45073;52.740;6.784;2023-02-28T14:20:29;4.72;;;1.50;;
59300;SDS011;45073;52.740;6.784;2023-02-28T14:23:06;5.55;;;1.70;;
59300;SDS011;45073;52.740;6.784;2023-02-28T14:29:24;5.25;;;1.75;;
59300;SDS011;45073;52.740;6.784;2023-02-28T14:31:13;7.53;;;3.13;;
59300;SDS011;45073;52.740;6.784;2023-02-28T14:33:57;5.95;;;2.70;;
59300;SDS011;45073;52.740;6.784;2023-02-28T14:36:41;6.82;;;2.10;;
59300;SDS011;45073;52.740;6.784;2023-02-28T14:41:42;5.43;;;1.75;;
59300;SDS011;45073;52.740;6.784;2023-02-28T14:44:13;5.15;;;1.50;;
59300;SDS011;45073;52.740;6.784;2023-02-28T14:46:45;4.72;;;1.48;;
59300;SDS011;45073;52.740;6.784;2023-02-28T14:49:18;4.22;;;1.50;;
59300;SDS011;45073;52.740;6.784;2023-02-28T14:52:29;4.85;;;1.40;;
59300;SDS011;45073;52.740;6.784;2023-02-28T14:54:53;4.85;;;1.52;;
59300;SDS011;45073;52.740;6.784;2023-02-28T14:57:21;5.55;;;1.60;;
59300;SDS011;45073;52.740;6.784;2023-02-28T15:00:52;4.35;;;1.60;;
59300;SDS011;45073;52.740;6.784;2023-02-28T15:02:48;3.95;;;1.48;;
59300;SDS011;45073;52.740;6.784;2023-02-28T15:07:43;2.92;;;1.38;;
59300;SDS011;45073;52.740;6.784;2023-02-28T15:10:18;4.50;;;1.63;;
59300;SDS011;45073;52.740;6.784;2023-02-28T15:12:55;4.65;;;1.50;;
59300;SDS011;45073;52.740;6.784;2023-02-28T15:20:50;4.38;;;1.80;;
59300;SDS011;45073;52.740;6.784;2023-02-28T15:23:16;4.05;;;1.60;;
59300;SDS011;45073;52.740;6.784;2023-02-28T15:25:43;5.22;;;1.80;;
59300;SDS011;45073;52.740;6.784;2023-02-28T15:28:11;5.53;;;1.73;;
59300;SDS011;45073;52.740;6.784;2023-02-28T15:30:49;5.07;;;1.77;;
59300;SDS011;45073;52.740;6.784;2023-02-28T15:33:22;4.00;;;1.60;;
59300;SDS011;45073;52.740;6.784;2023-02-28T15:35:50;4.00;;;1.60;;
59300;SDS011;45073;52.740;6.784;2023-02-28T15:40:50;5.32;;;1.80;;
59300;SDS011;45073;52.740;6.784;2023-02-28T15:43:25;4.97;;;1.88;;
59300;SDS011;45073;52.740;6.784;2023-02-28T15:45:59;5.28;;;1.80;;
59300;SDS011;45073;52.740;6.784;2023-02-28T15:48:36;7.32;;;1.70;;
59300;SDS011;45073;52.740;6.784;2023-02-28T15:58:58;5.28;;;1.67;;
59300;SDS011;45073;52.740;6.784;2023-02-28T16:01:30;5.28;;;1.80;;
59300;SDS011;45073;52.740;6.784;2023-02-28T16:04:02;4.82;;;1.63;;
59300;SDS011;45073;52.740;6.784;2023-02-28T16:06:37;4.18;;;1.58;;
59300;SDS011;45073;52.740;6.784;2023-02-28T16:09:25;6.03;;;1.70;;
59300;SDS011;45073;52.740;6.784;2023-02-28T16:11:54;6.57;;;2.42;;
59300;SDS011;45073;52.740;6.784;2023-02-28T16:14:22;5.93;;;2.15;;
59300;SDS011;45073;52.740;6.784;2023-02-28T16:16:51;4.10;;;1.60;;
59300;SDS011;45073;52.740;6.784;2023-02-28T16:19:18;4.50;;;2.00;;
59300;SDS011;45073;52.740;6.784;2023-02-28T16:21:46;7.00;;;2.50;;
59300;SDS011;45073;52.740;6.784;2023-02-28T16:24:12;5.82;;;2.05;;
59300;SDS011;45073;52.740;6.784;2023-02-28T16:26:38;5.85;;;2.28;;
59300;SDS011;45073;52.740;6.784;2023-02-28T16:29:05;10.07;;;2.30;;
59300;SDS011;45073;52.740;6.784;2023-02-28T16:31:35;8.40;;;2.50;;
59300;SDS011;45073;52.740;6.784;2023-02-28T16:34:02;7.00;;;2.80;;
59300;SDS011;45073;52.740;6.784;2023-02-28T16:36:28;5.80;;;2.13;;
59300;SDS011;45073;52.740;6.784;2023-02-28T16:38:54;6.40;;;2.60;;
59300;SDS011;45073;52.740;6.784;2023-02-28T16:41:21;6.10;;;2.22;;
59300;SDS011;45073;52.740;6.784;2023-02-28T16:43:50;10.85;;;3.72;;
59300;SDS011;45073;52.740;6.784;2023-02-28T16:46:18;6.35;;;2.20;;
59300;SDS011;45073;52.740;6.784;2023-02-28T16:48:45;6.07;;;2.00;;
59300;SDS011;45073;52.740;6.784;2023-02-28T16:51:14;5.88;;;1.95;;
59300;SDS011;45073;52.740;6.784;2023-02-28T16:53:40;7.00;;;2.38;;
59300;SDS011;45073;52.740;6.784;2023-02-28T16:56:10;7.28;;;2.20;;
59300;SDS011;45073;52.740;6.784;2023-02-28T16:58:44;6.07;;;2.20;;
59300;SDS011;45073;52.740;6.784;2023-02-28T17:01:10;5.65;;;2.00;;
59300;SDS011;45073;52.740;6.784;2023-02-28T17:03:35;6.43;;;2.20;;
59300;SDS011;45073;52.740;6.784;2023-02-28T17:06:02;6.47;;;2.33;;
59300;SDS011;45073;52.740;6.784;2023-02-28T17:08:28;8.45;;;2.83;;
59300;SDS011;45073;52.740;6.784;2023-02-28T17:10:56;10.02;;;2.78;;
59300;SDS011;45073;52.740;6.784;2023-02-28T17:13:22;9.07;;;3.92;;
59300;SDS011;45073;52.740;6.784;2023-02-28T17:15:48;10.93;;;4.10;;
59300;SDS011;45073;52.740;6.784;2023-02-28T17:18:14;6.18;;;2.28;;
59300;SDS011;45073;52.740;6.784;2023-02-28T17:20:43;7.38;;;2.67;;
59300;SDS011;45073;52.740;6.784;2023-02-28T17:23:10;8.00;;;3.20;;
59300;SDS011;45073;52.740;6.784;2023-02-28T17:25:35;8.63;;;3.15;;
59300;SDS011;45073;52.740;6.784;2023-02-28T17:28:01;6.75;;;2.42;;
59300;SDS011;45073;52.740;6.784;2023-02-28T17:30:27;5.82;;;2.30;;
59300;SDS011;45073;52.740;6.784;2023-02-28T17:32:54;7.20;;;3.10;;